createdAt,value
2018-12-25T00:00:17.464Z,15.07
2018-12-25T00:02:45.104Z,12.30
2018-12-25T00:05:12.730Z,18.40
2018-12-25T00:07:40.349Z,20.20
2018-12-25T00:10:08.046Z,13.07
2018-12-25T00:12:35.651Z,14.87
2018-12-25T00:15:03.334Z,15.87
2018-12-25T00:17:30.806Z,22.67
2018-12-25T00:19:58.427Z,16.53
2018-12-25T00:22:25.930Z,15.27
2018-12-25T00:24:53.408Z,13.57
2018-12-25T00:27:20.946Z,10.93
2018-12-25T00:29:48.466Z,20.30
2018-12-25T00:32:15.967Z,11.23
2018-12-25T00:34:43.532Z,31.37
2018-12-25T00:37:11.214Z,13.20
2018-12-25T00:39:39.046Z,12.00
2018-12-25T00:42:09.048Z,15.20
2018-12-25T00:44:36.594Z,15.13
2018-12-25T00:47:05.465Z,22.73
2018-12-25T00:49:49.439Z,12.43
2018-12-25T00:52:05.063Z,15.63
2018-12-25T00:54:32.582Z,14.80
2018-12-25T00:57:02.026Z,13.23
2018-12-25T00:59:29.537Z,10.57
2018-12-25T01:01:57.074Z,14.67
2018-12-25T01:04:27.913Z,16.60
2018-12-25T01:06:55.410Z,17.20
2018-12-25T01:09:23.030Z,14.57
2018-12-25T01:11:50.614Z,13.80
2018-12-25T01:14:24.276Z,11.10
2018-12-25T01:16:51.794Z,15.47
2018-12-25T01:19:23.290Z,13.37
2018-12-25T01:21:49.342Z,13.83
2018-12-25T01:24:16.886Z,18.33
2018-12-25T01:26:44.530Z,17.40
2018-12-25T01:29:12.067Z,28.63
2018-12-25T01:32:00.163Z,17.30
2018-12-25T01:34:28.053Z,17.17
2018-12-25T01:37:03.030Z,13.23
2018-12-25T01:39:30.622Z,11.10
2018-12-25T01:41:58.147Z,16.43
2018-12-25T01:44:26.849Z,12.57
2018-12-25T01:46:54.426Z,11.23
2018-12-25T01:49:21.938Z,12.07
2018-12-25T01:51:49.441Z,12.63
2018-12-25T01:54:17.369Z,12.70
2018-12-25T01:56:44.885Z,13.47
2018-12-25T01:59:12.490Z,11.80
2018-12-25T02:01:40.046Z,16.07
2018-12-25T02:04:07.558Z,9.87
2018-12-25T02:06:35.142Z,10.70
2018-12-25T02:09:03.158Z,12.03
2018-12-25T02:11:30.641Z,9.37
2018-12-25T02:13:58.146Z,10.10
2018-12-25T02:16:25.701Z,12.93
2018-12-25T02:18:53.228Z,11.03
2018-12-25T02:21:20.734Z,8.80
2018-12-25T02:23:48.272Z,10.40
2018-12-25T02:26:15.775Z,10.70
2018-12-25T02:28:43.278Z,10.53
2018-12-25T02:31:10.830Z,8.93
2018-12-25T02:33:38.313Z,8.77
2018-12-25T02:36:05.844Z,7.70
2018-12-25T02:38:33.381Z,10.03
2018-12-25T02:41:01.022Z,8.30
2018-12-25T02:43:29.069Z,8.80
2018-12-25T02:45:56.997Z,9.97
2018-12-25T02:48:44.044Z,13.47
2018-12-25T02:51:14.604Z,8.90
2018-12-25T02:53:42.116Z,10.73
2018-12-25T02:56:09.658Z,14.70
2018-12-25T02:58:37.212Z,7.43
2018-12-25T03:01:04.838Z,8.03
2018-12-25T03:03:32.358Z,6.57
2018-12-25T03:06:00.004Z,6.53
2018-12-25T03:08:27.595Z,9.37
2018-12-25T03:10:55.083Z,11.47
2018-12-25T03:13:23.870Z,6.57
2018-12-25T03:15:51.354Z,7.80
2018-12-25T03:18:18.877Z,6.43
2018-12-25T03:20:46.432Z,7.83
2018-12-25T03:23:13.917Z,8.17
2018-12-25T03:25:41.420Z,7.67
2018-12-25T03:28:09.081Z,6.27
2018-12-25T03:30:36.557Z,9.07
2018-12-25T03:33:04.063Z,7.30
2018-12-25T03:35:31.674Z,6.80
2018-12-25T03:37:59.270Z,7.40
2018-12-25T03:40:28.622Z,8.60
2018-12-25T03:42:56.142Z,8.50
2018-12-25T03:45:24.110Z,13.17
2018-12-25T03:47:51.963Z,6.90
2018-12-25T03:50:19.521Z,12.27
2018-12-25T03:52:47.092Z,7.53
2018-12-25T03:55:14.595Z,7.73
2018-12-25T03:57:42.098Z,8.77
2018-12-25T04:00:09.600Z,8.90
2018-12-25T04:02:37.104Z,11.93
2018-12-25T04:05:04.694Z,12.40
2018-12-25T04:07:46.005Z,9.80
2018-12-25T04:10:13.447Z,9.63
2018-12-25T04:12:47.324Z,8.27
2018-12-25T04:15:14.842Z,13.87
2018-12-25T04:17:42.398Z,13.07
2018-12-25T04:20:19.510Z,15.40
2018-12-25T04:22:39.311Z,14.27
2018-12-25T04:25:06.845Z,13.27
2018-12-25T04:27:34.335Z,10.97
2018-12-25T04:30:01.826Z,11.53
2018-12-25T04:32:29.366Z,6.30
2018-12-25T04:34:56.853Z,12.23
2018-12-25T04:37:24.370Z,10.23
2018-12-25T04:39:51.898Z,9.30
2018-12-25T04:42:19.390Z,8.83
2018-12-25T04:44:46.877Z,15.73
2018-12-25T04:47:14.429Z,16.50
2018-12-25T04:49:41.933Z,13.80
2018-12-25T04:52:09.441Z,11.30
2018-12-25T04:54:36.997Z,14.33
2018-12-25T04:57:04.506Z,11.63
2018-12-25T04:59:31.998Z,9.77
2018-12-25T05:01:59.530Z,10.70
2018-12-25T05:04:27.234Z,10.77
2018-12-25T05:06:54.738Z,12.17
2018-12-25T05:09:22.275Z,16.67
2018-12-25T05:11:49.772Z,17.43
2018-12-25T05:14:17.287Z,14.90
2018-12-25T05:16:44.826Z,16.17
2018-12-25T05:19:12.326Z,14.93
2018-12-25T05:21:39.822Z,11.60
2018-12-25T05:24:07.350Z,21.90
2018-12-25T05:26:34.835Z,14.83
2018-12-25T05:29:02.331Z,19.50
2018-12-25T05:31:29.873Z,30.47
2018-12-25T05:33:57.386Z,31.37
2018-12-25T05:36:24.866Z,32.37
2018-12-25T05:38:52.433Z,25.73
2018-12-25T05:41:20.002Z,28.93
2018-12-25T05:43:47.432Z,27.00
2018-12-25T05:46:15.377Z,29.10
2018-12-25T05:48:42.869Z,28.70
2018-12-25T05:51:10.358Z,30.87
2018-12-25T05:53:37.907Z,26.03
2018-12-25T05:56:05.420Z,21.27
2018-12-25T05:58:32.906Z,19.97
2018-12-25T06:01:00.667Z,18.10
2018-12-25T06:03:28.145Z,18.57
2018-12-25T06:05:55.646Z,26.67
2018-12-25T06:08:23.181Z,21.87
2018-12-25T06:10:50.662Z,22.17
2018-12-25T06:13:18.170Z,20.63
2018-12-25T06:15:45.685Z,20.13
2018-12-25T06:18:13.219Z,18.13
2018-12-25T06:20:40.722Z,24.20
2018-12-25T06:23:08.258Z,20.13
2018-12-25T06:25:35.743Z,22.47
2018-12-25T06:28:03.258Z,19.70
2018-12-25T06:30:30.783Z,20.27
2018-12-25T06:32:58.292Z,20.70
2018-12-25T06:35:25.786Z,15.90
2018-12-25T06:37:53.333Z,20.93
2018-12-25T06:40:20.824Z,19.27
2018-12-25T06:42:48.318Z,19.47
2018-12-25T06:45:15.886Z,21.43
2018-12-25T06:47:43.363Z,18.93
2018-12-25T06:50:10.862Z,20.10
2018-12-25T06:52:38.414Z,19.40
2018-12-25T06:55:05.948Z,20.43
2018-12-25T06:57:33.524Z,17.27
2018-12-25T07:00:01.148Z,19.87
2018-12-25T07:02:28.718Z,20.80
2018-12-25T07:05:04.782Z,19.17
2018-12-25T07:07:32.277Z,29.90
2018-12-25T07:09:59.785Z,22.83
2018-12-25T07:12:27.362Z,21.07
2018-12-25T07:14:54.880Z,23.53
2018-12-25T07:17:22.381Z,26.80
2018-12-25T07:19:50.031Z,24.40
2018-12-25T07:22:17.533Z,26.50
2018-12-25T07:24:45.037Z,36.00
2018-12-25T07:27:12.677Z,30.60
2018-12-25T07:29:40.260Z,26.63
2018-12-25T07:32:07.777Z,28.67
2018-12-25T07:34:35.350Z,36.80
2018-12-25T07:37:02.874Z,27.97
2018-12-25T07:39:30.522Z,32.83
2018-12-25T07:41:58.019Z,29.33
2018-12-25T07:44:25.504Z,36.60
2018-12-25T07:46:53.032Z,42.20
2018-12-25T07:49:20.524Z,39.90
2018-12-25T07:51:48.077Z,29.00
2018-12-25T07:54:15.660Z,32.07
2018-12-25T07:56:43.159Z,29.50
2018-12-25T07:59:10.669Z,36.63
2018-12-25T08:01:38.967Z,41.47
2018-12-25T08:04:06.440Z,42.07
2018-12-25T08:06:33.942Z,46.53
2018-12-25T08:09:01.468Z,45.33
2018-12-25T08:11:32.090Z,46.83
2018-12-25T08:14:01.092Z,40.37
2018-12-25T08:17:00.709Z,45.70
2018-12-25T08:19:28.258Z,44.40
2018-12-25T08:21:55.792Z,39.00
2018-12-25T08:24:50.650Z,36.53
2018-12-25T08:27:29.042Z,40.87
2018-12-25T08:36:42.010Z,49.87
2018-12-25T08:39:44.580Z,43.07
2018-12-25T08:42:36.078Z,40.90
2018-12-25T08:45:07.786Z,39.33
2018-12-25T08:47:42.894Z,38.83
2018-12-25T08:50:14.929Z,41.60
2018-12-25T08:57:09.195Z,50.43
2018-12-25T09:06:23.587Z,68.57
2018-12-25T09:09:23.374Z,45.60
2018-12-25T09:12:19.515Z,39.10
2018-12-25T09:14:52.952Z,37.43
2018-12-25T09:17:20.582Z,36.60
2018-12-25T09:19:48.142Z,37.23
2018-12-25T09:22:15.760Z,47.07
2018-12-25T09:24:43.307Z,43.13
2018-12-25T09:27:10.970Z,39.60
2018-12-25T09:29:39.368Z,42.27
2018-12-25T09:32:06.888Z,37.47
2018-12-25T09:34:34.434Z,35.67
2018-12-25T09:37:02.034Z,47.77
2018-12-25T09:39:29.588Z,43.43
2018-12-25T09:41:57.100Z,49.60
2018-12-25T09:44:24.610Z,42.57
2018-12-25T09:46:52.152Z,50.90
2018-12-25T09:49:19.703Z,59.83
2018-12-25T09:51:54.388Z,76.93
2018-12-25T09:54:16.905Z,37.77
2018-12-25T09:56:48.512Z,45.27
2018-12-25T09:59:16.329Z,46.90
2018-12-25T10:01:43.847Z,40.97
2018-12-25T10:04:11.356Z,39.97
2018-12-25T10:06:39.010Z,41.37
2018-12-25T10:09:07.596Z,37.30
2018-12-25T10:11:35.172Z,37.53
2018-12-25T10:14:02.674Z,46.53
2018-12-25T10:16:30.290Z,37.47
2018-12-25T10:18:57.841Z,38.50
2018-12-25T10:21:25.490Z,37.00
2018-12-25T10:23:53.060Z,41.20
2018-12-25T10:26:20.600Z,44.57
2018-12-25T10:28:48.297Z,43.07
2018-12-25T10:31:17.756Z,36.30
2018-12-25T10:33:45.316Z,43.73
2018-12-25T10:36:12.967Z,44.00
2018-12-25T10:38:40.601Z,37.17
2018-12-25T10:41:08.168Z,57.47
2018-12-25T10:43:35.817Z,48.60
2018-12-25T10:46:03.352Z,45.17
2018-12-25T10:48:30.890Z,68.83
2018-12-25T10:50:58.532Z,61.30
2018-12-25T10:53:26.058Z,120.70
2018-12-25T10:55:53.788Z,74.93
2018-12-25T10:58:23.259Z,73.87
2018-12-25T11:00:55.033Z,71.33
2018-12-25T11:03:22.603Z,56.60
2018-12-25T11:05:50.246Z,53.47
2018-12-25T11:08:18.013Z,49.40
2018-12-25T11:10:45.562Z,49.17
2018-12-25T11:13:13.137Z,52.73
2018-12-25T11:15:40.664Z,49.13
2018-12-25T11:18:08.210Z,44.87
2018-12-25T11:20:38.348Z,45.73
2018-12-25T11:23:05.865Z,50.67
2018-12-25T11:25:33.458Z,44.23
2018-12-25T11:28:01.032Z,53.37
2018-12-25T11:30:28.568Z,46.47
2018-12-25T11:32:56.100Z,44.70
2018-12-25T11:35:23.694Z,59.47
2018-12-25T11:37:51.244Z,67.80
2018-12-25T11:40:18.818Z,56.33
2018-12-25T11:42:46.302Z,54.73
2018-12-25T11:45:15.084Z,55.17
2018-12-25T11:47:42.680Z,62.80
2018-12-25T11:50:10.358Z,56.53
2018-12-25T11:52:37.886Z,48.10
2018-12-25T11:55:05.474Z,64.83
2018-12-25T11:57:33.144Z,54.93
2018-12-25T12:00:00.653Z,62.67
2018-12-25T12:02:28.199Z,67.93
2018-12-25T12:04:55.735Z,80.37
2018-12-25T12:07:23.230Z,56.73
2018-12-25T12:09:50.796Z,44.17
2018-12-25T12:12:18.306Z,41.80
2018-12-25T12:14:45.798Z,53.07
2018-12-25T12:17:13.356Z,53.97
2018-12-25T12:19:40.840Z,58.07
2018-12-25T12:22:08.386Z,52.60
2018-12-25T12:24:36.206Z,42.57
2018-12-25T12:27:03.698Z,54.77
2018-12-25T12:29:31.229Z,74.47
2018-12-25T12:31:58.794Z,58.13
2018-12-25T12:34:26.332Z,59.10
2018-12-25T12:36:53.814Z,76.07
2018-12-25T12:39:21.397Z,54.87
2018-12-25T12:41:48.896Z,64.77
2018-12-25T12:44:16.472Z,80.57
2018-12-25T12:46:44.093Z,54.33
2018-12-25T12:49:11.605Z,55.43
2018-12-25T12:51:39.089Z,61.93
2018-12-25T12:54:06.694Z,55.50
2018-12-25T12:56:34.474Z,59.33
2018-12-25T12:59:01.983Z,69.53
2018-12-25T13:01:29.540Z,83.80
2018-12-25T13:03:57.056Z,50.93
2018-12-25T13:06:24.551Z,80.57
2018-12-25T13:08:52.110Z,78.07
2018-12-25T13:11:19.617Z,63.77
2018-12-25T13:13:47.142Z,49.90
2018-12-25T13:16:14.697Z,49.20
2018-12-25T13:18:42.206Z,53.17
2018-12-25T13:21:09.725Z,54.70
2018-12-25T13:23:37.287Z,61.67
2018-12-25T13:26:04.830Z,46.63
2018-12-25T13:28:32.331Z,51.60
2018-12-25T13:31:00.065Z,48.20
2018-12-25T13:33:27.696Z,47.77
2018-12-25T13:35:55.189Z,48.87
2018-12-25T13:38:23.625Z,47.20
2018-12-25T13:40:51.319Z,53.63
2018-12-25T13:43:18.835Z,49.20
2018-12-25T13:45:46.393Z,44.83
2018-12-25T13:48:13.928Z,50.63
2018-12-25T13:50:41.430Z,48.03
2018-12-25T13:53:09.019Z,56.17
2018-12-25T13:55:36.542Z,53.20
2018-12-25T13:58:04.087Z,56.23
2018-12-25T14:00:31.623Z,52.40
2018-12-25T14:02:59.117Z,45.37
2018-12-25T14:05:26.684Z,47.77
2018-12-25T14:07:54.245Z,46.37
2018-12-25T14:10:21.757Z,53.47
2018-12-25T14:12:49.288Z,47.27
2018-12-25T14:15:16.897Z,49.93
2018-12-25T14:17:44.449Z,50.37
2018-12-25T14:20:11.969Z,47.60
2018-12-25T14:22:39.542Z,54.57
2018-12-25T14:25:07.182Z,47.53
2018-12-25T14:27:34.849Z,50.50
2018-12-25T14:30:02.590Z,48.50
2018-12-25T14:32:30.188Z,55.43
2018-12-25T14:35:00.252Z,53.80
2018-12-25T14:37:29.879Z,52.63
2018-12-25T14:39:57.394Z,54.30
2018-12-25T14:42:24.870Z,59.13
2018-12-25T14:44:52.435Z,57.83
2018-12-25T14:47:20.591Z,56.13
2018-12-25T14:49:48.108Z,59.93
2018-12-25T14:52:15.679Z,60.57
2018-12-25T14:54:43.193Z,71.03
2018-12-25T14:57:10.699Z,54.90
2018-12-25T14:59:38.231Z,60.03
2018-12-25T15:02:05.827Z,52.77
2018-12-25T15:04:33.345Z,67.40
2018-12-25T15:07:00.903Z,80.13
2018-12-25T15:09:28.399Z,67.77
2018-12-25T15:11:55.977Z,64.60
2018-12-25T15:14:23.521Z,63.33
2018-12-25T15:16:51.038Z,65.40
2018-12-25T15:19:18.625Z,82.00
2018-12-25T15:21:46.178Z,79.17
2018-12-25T15:24:13.694Z,87.33
2018-12-25T15:26:41.210Z,55.70
2018-12-25T15:29:08.746Z,77.83
2018-12-25T15:31:36.278Z,69.53
2018-12-25T15:34:03.855Z,94.63
2018-12-25T15:36:31.406Z,72.83
2018-12-25T15:38:58.914Z,63.93
2018-12-25T15:41:26.710Z,57.57
2018-12-25T15:43:54.245Z,71.87
2018-12-25T15:46:21.741Z,73.90
2018-12-25T15:48:49.429Z,72.73
2018-12-25T15:51:17.003Z,78.50
2018-12-25T15:53:44.524Z,83.20
2018-12-25T15:56:12.873Z,83.80
2018-12-25T15:58:40.407Z,117.47
2018-12-25T16:01:07.927Z,101.97
2018-12-25T16:03:35.518Z,70.90
2018-12-25T16:06:03.030Z,59.47
2018-12-25T16:08:30.568Z,56.23
2018-12-25T16:10:58.065Z,66.00
2018-12-25T16:13:28.360Z,51.93
2018-12-25T16:15:55.902Z,52.60
2018-12-25T16:18:23.404Z,52.07
2018-12-25T16:20:50.898Z,49.20
2018-12-25T16:23:18.415Z,64.13
2018-12-25T16:25:45.894Z,53.30
2018-12-25T16:28:13.394Z,55.23
2018-12-25T16:30:40.942Z,46.57
2018-12-25T16:33:08.506Z,50.87
2018-12-25T16:35:36.040Z,76.43
2018-12-25T16:38:03.538Z,58.33
2018-12-25T16:40:31.014Z,53.33
2018-12-25T16:42:58.583Z,45.90
2018-12-25T16:45:26.091Z,53.27
2018-12-25T16:47:53.682Z,49.27
2018-12-25T16:50:21.308Z,52.17
2018-12-25T16:52:48.796Z,54.33
2018-12-25T16:55:16.339Z,61.77
2018-12-25T16:57:43.918Z,54.57
2018-12-25T17:00:11.452Z,50.73
2018-12-25T17:02:38.988Z,53.73
2018-12-25T17:05:06.579Z,58.37
2018-12-25T17:07:34.092Z,55.43
2018-12-25T17:10:01.599Z,57.40
2018-12-25T17:12:29.210Z,66.37
2018-12-25T17:14:56.754Z,63.47
2018-12-25T17:17:24.276Z,60.70
2018-12-25T17:19:51.848Z,56.30
2018-12-25T17:22:20.361Z,57.83
2018-12-25T17:24:48.148Z,62.00
2018-12-25T17:27:15.698Z,63.10
2018-12-25T17:29:43.240Z,60.10
2018-12-25T17:32:10.764Z,76.00
2018-12-25T17:34:38.456Z,63.33
2018-12-25T17:37:05.987Z,82.87
2018-12-25T17:39:33.542Z,94.30
2018-12-25T17:42:01.106Z,84.17
2018-12-25T17:44:28.648Z,112.07
2018-12-25T17:46:56.185Z,94.03
2018-12-25T17:49:23.744Z,96.77
2018-12-25T17:51:51.300Z,71.80
2018-12-25T17:54:18.832Z,79.83
2018-12-25T17:56:46.422Z,64.73
2018-12-25T17:59:13.948Z,63.80
2018-12-25T18:01:42.946Z,68.80
2018-12-25T18:04:10.574Z,62.07
2018-12-25T18:06:38.536Z,62.37
2018-12-25T18:09:06.126Z,67.53
2018-12-25T18:11:33.756Z,72.20
2018-12-25T18:14:01.325Z,72.53
2018-12-25T18:16:30.076Z,48.77
2018-12-25T18:18:57.820Z,62.87
2018-12-25T18:21:25.358Z,73.83
2018-12-25T18:23:52.872Z,72.20
2018-12-25T18:26:20.606Z,71.20
2018-12-25T18:28:48.108Z,73.83
2018-12-25T18:31:15.626Z,84.13
2018-12-25T18:33:43.217Z,74.40
2018-12-25T18:36:10.750Z,78.23
2018-12-25T18:38:38.376Z,84.30
2018-12-25T18:41:06.339Z,113.77
2018-12-25T18:43:33.842Z,105.37
2018-12-25T18:46:01.349Z,70.23
2018-12-25T18:48:28.892Z,78.80
2018-12-25T18:50:56.468Z,88.03
2018-12-25T18:53:23.970Z,75.10
2018-12-25T18:55:51.548Z,79.37
2018-12-25T18:58:19.056Z,80.17
2018-12-25T19:00:46.690Z,82.70
2018-12-25T19:03:14.263Z,71.27
2018-12-25T19:05:41.812Z,78.33
2018-12-25T19:08:09.382Z,72.80
2018-12-25T19:10:36.990Z,63.50
2018-12-25T19:13:04.553Z,70.67
2018-12-25T19:15:33.528Z,63.57
2018-12-25T19:18:01.576Z,70.10
2018-12-25T19:20:29.237Z,77.60
2018-12-25T19:22:56.786Z,72.90
2018-12-25T19:25:24.348Z,74.93
2018-12-25T19:27:52.010Z,56.27
2018-12-25T19:30:22.002Z,57.00
2018-12-25T19:32:57.480Z,65.23
2018-12-25T19:35:25.044Z,55.23
2018-12-25T19:37:52.580Z,57.03
2018-12-25T19:40:20.248Z,55.97
2018-12-25T19:42:47.825Z,60.50
2018-12-25T19:45:15.554Z,45.07
2018-12-25T19:47:43.126Z,58.43
2018-12-25T19:50:10.670Z,58.80
2018-12-25T19:52:39.558Z,58.20
2018-12-25T19:55:07.160Z,57.53
2018-12-25T19:57:34.740Z,56.33
2018-12-25T20:00:02.278Z,59.63
2018-12-25T20:02:29.865Z,63.27
2018-12-25T20:05:42.150Z,59.30
2018-12-25T20:08:43.352Z,60.00
2018-12-25T20:11:51.808Z,51.47
2018-12-25T20:15:01.371Z,55.13
2018-12-25T20:18:00.150Z,47.90
2018-12-25T20:20:51.299Z,50.53
2018-12-25T20:23:51.630Z,55.20
2018-12-25T20:27:07.457Z,51.50
2018-12-25T20:30:13.239Z,57.57
2018-12-25T20:33:12.414Z,60.67
2018-12-25T20:36:20.350Z,59.00
2018-12-25T20:39:22.990Z,65.87
2018-12-25T20:42:31.136Z,49.40
2018-12-25T20:45:37.082Z,49.37
2018-12-25T20:48:39.993Z,44.03
2018-12-25T20:51:54.412Z,48.03
2018-12-25T20:54:48.314Z,46.60
2018-12-25T20:58:02.044Z,42.67
2018-12-25T21:01:21.271Z,46.97
2018-12-25T21:04:35.553Z,49.83
2018-12-25T21:07:45.342Z,46.17
2018-12-25T21:11:02.894Z,36.37
2018-12-25T21:14:10.510Z,33.57
2018-12-25T21:17:00.633Z,45.80
2018-12-25T21:20:15.351Z,36.47
2018-12-25T21:23:19.827Z,46.40
2018-12-25T21:26:24.317Z,47.83
2018-12-25T21:28:51.905Z,44.10
2018-12-25T21:31:19.943Z,29.60
2018-12-25T21:33:47.570Z,29.30
2018-12-25T21:36:15.287Z,49.13
2018-12-25T21:38:42.790Z,40.50
2018-12-25T21:41:11.536Z,45.37
2018-12-25T21:43:39.244Z,41.90
2018-12-25T21:46:06.746Z,39.97
2018-12-25T21:48:34.430Z,30.40
2018-12-25T21:51:01.957Z,32.33
2018-12-25T21:53:30.886Z,42.57
2018-12-25T21:55:59.064Z,40.03
2018-12-25T21:58:28.002Z,40.50
2018-12-25T22:00:56.375Z,39.13
2018-12-25T22:03:25.078Z,36.20
2018-12-25T22:05:52.568Z,33.13
2018-12-25T22:08:20.086Z,32.93
2018-12-25T22:10:48.304Z,30.60
2018-12-25T22:13:16.386Z,35.17
2018-12-25T22:15:44.354Z,31.57
2018-12-25T22:18:12.325Z,35.30
2018-12-25T22:20:39.866Z,34.13
2018-12-25T22:23:08.994Z,37.50
2018-12-25T22:25:37.941Z,35.13
2018-12-25T22:28:05.442Z,34.17
2018-12-25T22:30:33.650Z,34.00
2018-12-25T22:33:01.686Z,29.03
2018-12-25T22:35:40.456Z,31.47
2018-12-25T22:38:11.726Z,34.10
2018-12-25T22:40:39.230Z,29.80
2018-12-25T22:43:07.285Z,34.60
2018-12-25T22:45:34.839Z,35.93
2018-12-25T22:48:02.366Z,36.80
2018-12-25T22:50:32.246Z,34.47
2018-12-25T22:53:00.585Z,30.43
2018-12-25T22:55:35.855Z,32.63
2018-12-25T22:58:00.615Z,36.77
2018-12-25T23:00:30.674Z,33.33
2018-12-25T23:02:58.232Z,32.53
2018-12-25T23:05:26.834Z,26.97
2018-12-25T23:07:54.594Z,30.30
2018-12-25T23:10:22.728Z,31.80
2018-12-25T23:12:51.136Z,30.30
2018-12-25T23:15:19.932Z,44.37
2018-12-25T23:17:47.494Z,33.43
2018-12-25T23:20:15.394Z,28.40
2018-12-25T23:22:42.952Z,29.73
2018-12-25T23:25:10.925Z,35.47
2018-12-25T23:27:38.894Z,34.37
2018-12-25T23:30:09.700Z,37.10
2018-12-25T23:32:37.288Z,31.70
2018-12-25T23:35:04.824Z,36.47
2018-12-25T23:37:32.410Z,33.23
2018-12-25T23:39:59.934Z,30.57
2018-12-25T23:42:27.547Z,32.93
2018-12-25T23:44:55.100Z,31.83
2018-12-25T23:47:22.643Z,30.17
2018-12-25T23:49:50.172Z,34.30
2018-12-25T23:52:17.715Z,32.23
2018-12-25T23:54:45.225Z,39.27
2018-12-25T23:57:12.735Z,32.43
2018-12-25T23:59:40.350Z,31.90
